VKG481 LGRP-ESSV
Flight info
| Callsign | VKG481 |
|---|---|
| Flight time | 3h 30m |
| Altitude | 34000 |
| Route | BANRO UG80 IMR UN127 LMO DCT EVIVI DCT SODGO DCT DEGET DCT KEKED/N0445F360 DCT LENOV DCT LOGDA DCT PENOR/N0438F350 DCT KINTI |
| Aircraft | A321/M-SDE2E3FGHIJ1RWXYZ/LB2 |
Departure
| Time | 2026-05-06 10:50 |
|---|---|
| Airport | Rhodes International Airport "Diagoras" (LGRP) |
Arrival
| Time | 2026-05-06 14:21 |
|---|---|
| Airport | Visby Airport (ESSV) |
| Time | Latitude | Longitude | Altitude | Speed | Heading |
|---|---|---|---|---|---|
| 2026-05-06 10:34 | 36.40378 | 28.09185 | 28 ft | 0 kts | 160° |
| 2026-05-06 10:42 | 36.40392 | 28.09179 | 28 ft | 4 kts | 160° |
| 2026-05-06 10:42 | 36.40413 | 28.09169 | 28 ft | 3 kts | 158° |
| 2026-05-06 10:43 | 36.40432 | 28.09151 | 28 ft | 4 kts | 109° |
| 2026-05-06 10:43 | 36.40434 | 28.09120 | 28 ft | 4 kts | 72° |
| 2026-05-06 10:43 | 36.40438 | 28.09136 | 28 ft | 4 kts | 70° |
| 2026-05-06 10:44 | 36.40440 | 28.09142 | 28 ft | 0 kts | 70° |
| 2026-05-06 10:45 | 36.40441 | 28.09144 | 28 ft | 2 kts | 70° |
| 2026-05-06 10:45 | 36.40451 | 28.09177 | 28 ft | 6 kts | 70° |
| 2026-05-06 10:46 | 36.40471 | 28.09247 | 28 ft | 9 kts | 70° |
| 2026-05-06 10:46 | 36.40490 | 28.09309 | 28 ft | 7 kts | 64° |
| 2026-05-06 10:46 | 36.40516 | 28.09349 | 28 ft | 5 kts | 45° |
| 2026-05-06 10:46 | 36.40557 | 28.09390 | 28 ft | 12 kts | 39° |
| 2026-05-06 10:47 | 36.40614 | 28.09502 | 28 ft | 19 kts | 70° |
| 2026-05-06 10:47 | 36.40656 | 28.09647 | 28 ft | 17 kts | 70° |
| 2026-05-06 10:47 | 36.40695 | 28.09778 | 28 ft | 15 kts | 70° |
| 2026-05-06 10:47 | 36.40729 | 28.09895 | 28 ft | 14 kts | 70° |
| 2026-05-06 10:48 | 36.40766 | 28.10024 | 28 ft | 19 kts | 70° |
| 2026-05-06 10:48 | 36.40809 | 28.10170 | 28 ft | 17 kts | 70° |
| 2026-05-06 10:48 | 36.40849 | 28.10306 | 28 ft | 16 kts | 70° |
| 2026-05-06 10:48 | 36.40895 | 28.10419 | 28 ft | 14 kts | 36° |
| 2026-05-06 10:49 | 36.40976 | 28.10402 | 27 ft | 12 kts | 314° |
| 2026-05-06 10:49 | 36.41021 | 28.10313 | 27 ft | 12 kts | 289° |
| 2026-05-06 10:49 | 36.40998 | 28.10189 | 27 ft | 29 kts | 250° |
| 2026-05-06 10:49 | 36.40850 | 28.09678 | 27 ft | 94 kts | 250° |
| 2026-05-06 10:50 | 36.40565 | 28.08714 | 29 ft | 142 kts | 250° |
| 2026-05-06 10:50 | 36.40194 | 28.07437 | 248 ft | 160 kts | 250° |
| 2026-05-06 10:50 | 36.39890 | 28.06155 | 875 ft | 158 kts | 264° |
| 2026-05-06 10:50 | 36.39784 | 28.04777 | 1372 ft | 164 kts | 268° |
| 2026-05-06 10:51 | 36.39690 | 28.03264 | 1502 ft | 186 kts | 267° |
| 2026-05-06 10:51 | 36.39577 | 28.01576 | 1626 ft | 206 kts | 267° |
| 2026-05-06 10:51 | 36.39445 | 27.99707 | 1774 ft | 230 kts | 266° |
| 2026-05-06 10:51 | 36.39290 | 27.97627 | 2075 ft | 251 kts | 266° |
| 2026-05-06 10:52 | 36.39123 | 27.95465 | 2713 ft | 258 kts | 267° |
| 2026-05-06 10:52 | 36.38946 | 27.93228 | 3398 ft | 264 kts | 267° |
| 2026-05-06 10:52 | 36.38761 | 27.90943 | 4105 ft | 268 kts | 268° |
| 2026-05-06 10:52 | 36.38573 | 27.88625 | 4828 ft | 273 kts | 268° |
| 2026-05-06 10:53 | 36.38384 | 27.86268 | 5508 ft | 276 kts | 270° |
| 2026-05-06 10:53 | 36.38380 | 27.83892 | 6246 ft | 276 kts | 275° |
| 2026-05-06 10:53 | 36.38411 | 27.81503 | 6957 ft | 278 kts | 275° |
| 2026-05-06 10:53 | 36.38437 | 27.79096 | 7643 ft | 280 kts | 275° |
| 2026-05-06 10:54 | 36.38462 | 27.76675 | 8335 ft | 282 kts | 275° |
| 2026-05-06 10:54 | 36.38489 | 27.74230 | 9018 ft | 285 kts | 275° |
| 2026-05-06 10:54 | 36.38666 | 27.71791 | 9694 ft | 284 kts | 283° |
| 2026-05-06 10:54 | 36.38976 | 27.69354 | 10278 ft | 290 kts | 283° |
| 2026-05-06 10:55 | 36.39308 | 27.66791 | 10408 ft | 312 kts | 283° |
| 2026-05-06 10:55 | 36.39663 | 27.64048 | 10540 ft | 332 kts | 282° |
| 2026-05-06 10:55 | 36.40029 | 27.61168 | 10887 ft | 342 kts | 282° |
| 2026-05-06 10:55 | 36.40395 | 27.58234 | 11475 ft | 346 kts | 282° |
| 2026-05-06 10:56 | 36.40761 | 27.55274 | 12081 ft | 348 kts | 282° |
| 2026-05-06 10:56 | 36.41128 | 27.52299 | 12719 ft | 350 kts | 282° |
| 2026-05-06 10:56 | 36.41498 | 27.49308 | 13348 ft | 352 kts | 282° |
| 2026-05-06 10:56 | 36.41746 | 27.47313 | 13769 ft | 353 kts | 282° |
| 2026-05-06 10:57 | 36.42121 | 27.44297 | 14344 ft | 355 kts | 282° |
| 2026-05-06 10:57 | 36.42497 | 27.41259 | 14896 ft | 357 kts | 282° |
| 2026-05-06 10:57 | 36.42878 | 27.38207 | 15436 ft | 359 kts | 282° |
| 2026-05-06 10:57 | 36.43261 | 27.35132 | 15988 ft | 361 kts | 282° |
| 2026-05-06 10:58 | 36.43641 | 27.32038 | 16445 ft | 364 kts | 281° |
| 2026-05-06 10:58 | 36.44021 | 27.28924 | 16909 ft | 366 kts | 282° |
| 2026-05-06 10:58 | 36.44404 | 27.25791 | 17451 ft | 368 kts | 282° |
| 2026-05-06 10:58 | 36.44790 | 27.22645 | 17984 ft | 370 kts | 282° |
| 2026-05-06 10:59 | 36.45177 | 27.19476 | 18480 ft | 372 kts | 282° |
| 2026-05-06 10:59 | 36.45565 | 27.16297 | 18908 ft | 374 kts | 281° |
| 2026-05-06 10:59 | 36.45954 | 27.13098 | 19338 ft | 375 kts | 281° |
| 2026-05-06 10:59 | 36.46342 | 27.09884 | 19777 ft | 377 kts | 281° |
| 2026-05-06 11:00 | 36.46733 | 27.06656 | 20203 ft | 379 kts | 281° |
| 2026-05-06 11:00 | 36.47255 | 27.02364 | 20770 ft | 381 kts | 281° |
| 2026-05-06 11:00 | 36.47524 | 27.00163 | 21052 ft | 382 kts | 281° |
| 2026-05-06 11:00 | 36.47918 | 26.96931 | 21473 ft | 384 kts | 281° |
| 2026-05-06 11:01 | 36.48323 | 26.93601 | 21891 ft | 386 kts | 281° |
| 2026-05-06 11:01 | 36.48724 | 26.90293 | 22297 ft | 388 kts | 281° |
| 2026-05-06 11:01 | 36.49121 | 26.87011 | 22695 ft | 390 kts | 281° |
| 2026-05-06 11:01 | 36.49525 | 26.83626 | 23115 ft | 391 kts | 281° |
| 2026-05-06 11:02 | 36.49915 | 26.80320 | 23517 ft | 393 kts | 281° |
| 2026-05-06 11:02 | 36.50316 | 26.76905 | 23879 ft | 395 kts | 281° |
| 2026-05-06 11:02 | 36.50707 | 26.73568 | 24206 ft | 396 kts | 281° |
| 2026-05-06 11:02 | 36.51112 | 26.70125 | 24544 ft | 398 kts | 282° |
| 2026-05-06 11:03 | 36.51508 | 26.66769 | 24867 ft | 399 kts | 282° |
| 2026-05-06 11:03 | 36.51911 | 26.63342 | 25186 ft | 401 kts | 282° |
| 2026-05-06 11:03 | 36.52314 | 26.59907 | 25507 ft | 402 kts | 282° |
| 2026-05-06 11:03 | 36.52950 | 26.56542 | 25806 ft | 399 kts | 292° |
| 2026-05-06 11:04 | 36.54145 | 26.53445 | 26101 ft | 397 kts | 304° |
| 2026-05-06 11:04 | 36.55846 | 26.50753 | 26393 ft | 397 kts | 315° |
| 2026-05-06 11:04 | 36.57974 | 26.48572 | 26687 ft | 398 kts | 327° |
| 2026-05-06 11:04 | 36.60430 | 26.46957 | 26970 ft | 401 kts | 333° |
| 2026-05-06 11:05 | 36.62961 | 26.45487 | 27275 ft | 402 kts | 333° |
| 2026-05-06 11:05 | 36.65502 | 26.44008 | 27568 ft | 404 kts | 333° |
| 2026-05-06 11:05 | 36.68048 | 26.42519 | 27848 ft | 405 kts | 333° |
| 2026-05-06 11:05 | 36.70603 | 26.41022 | 28123 ft | 406 kts | 333° |
| 2026-05-06 11:06 | 36.73163 | 26.39521 | 28384 ft | 408 kts | 333° |
| 2026-05-06 11:06 | 36.75736 | 26.38010 | 28684 ft | 409 kts | 333° |
| 2026-05-06 11:06 | 36.78309 | 26.36493 | 28972 ft | 410 kts | 333° |
| 2026-05-06 11:06 | 36.80889 | 26.34967 | 29246 ft | 411 kts | 333° |
| 2026-05-06 11:07 | 36.83478 | 26.33438 | 29507 ft | 412 kts | 333° |
| 2026-05-06 11:07 | 36.86075 | 26.31906 | 29771 ft | 414 kts | 333° |
| 2026-05-06 11:07 | 36.88676 | 26.30376 | 30106 ft | 413 kts | 333° |
| 2026-05-06 11:07 | 36.91271 | 26.28849 | 30433 ft | 411 kts | 333° |
| 2026-05-06 11:08 | 36.93854 | 26.27327 | 30734 ft | 410 kts | 333° |
| 2026-05-06 11:08 | 36.96400 | 26.25828 | 31008 ft | 409 kts | 333° |
| 2026-05-06 11:08 | 36.98980 | 26.24306 | 31217 ft | 411 kts | 333° |
| 2026-05-06 11:08 | 37.01560 | 26.22759 | 31472 ft | 411 kts | 333° |
| 2026-05-06 11:09 | 37.04129 | 26.21193 | 31775 ft | 410 kts | 332° |
| 2026-05-06 11:09 | 37.06689 | 26.19619 | 32070 ft | 410 kts | 332° |
| 2026-05-06 11:09 | 37.09244 | 26.18042 | 32363 ft | 409 kts | 332° |
| 2026-05-06 11:09 | 37.11794 | 26.16473 | 32657 ft | 408 kts | 332° |
| 2026-05-06 11:10 | 37.14342 | 26.14911 | 32945 ft | 408 kts | 332° |
| 2026-05-06 11:10 | 37.16892 | 26.13350 | 33227 ft | 407 kts | 332° |
| 2026-05-06 11:10 | 37.19432 | 26.11796 | 33506 ft | 406 kts | 332° |
| 2026-05-06 11:10 | 37.21972 | 26.10241 | 33790 ft | 406 kts | 332° |
| 2026-05-06 11:11 | 37.24511 | 26.08685 | 34044 ft | 406 kts | 332° |
| 2026-05-06 11:11 | 37.29535 | 26.05603 | 34117 ft | 398 kts | 332° |
| 2026-05-06 11:12 | 37.34491 | 26.02554 | 34117 ft | 396 kts | 332° |
| 2026-05-06 11:12 | 37.39437 | 25.99505 | 34115 ft | 396 kts | 332° |
| 2026-05-06 11:13 | 37.44387 | 25.96458 | 34114 ft | 396 kts | 332° |
| 2026-05-06 11:13 | 37.49332 | 25.93407 | 34088 ft | 396 kts | 332° |
| 2026-05-06 11:14 | 37.54290 | 25.90343 | 34108 ft | 397 kts | 332° |
| 2026-05-06 11:14 | 37.59256 | 25.87270 | 34109 ft | 397 kts | 332° |
| 2026-05-06 11:15 | 37.64213 | 25.84186 | 34110 ft | 397 kts | 332° |
| 2026-05-06 11:15 | 37.69168 | 25.81097 | 34108 ft | 397 kts | 332° |
| 2026-05-06 11:16 | 37.74094 | 25.78037 | 34106 ft | 397 kts | 332° |
| 2026-05-06 11:16 | 37.79050 | 25.74952 | 34097 ft | 397 kts | 332° |
| 2026-05-06 11:17 | 37.83998 | 25.71858 | 34096 ft | 397 kts | 332° |
| 2026-05-06 11:17 | 37.88952 | 25.68759 | 34096 ft | 397 kts | 332° |
| 2026-05-06 11:18 | 37.93907 | 25.65662 | 34097 ft | 397 kts | 332° |
| 2026-05-06 11:18 | 37.98866 | 25.62556 | 34076 ft | 398 kts | 332° |
| 2026-05-06 11:19 | 38.03833 | 25.59435 | 34097 ft | 399 kts | 332° |
| 2026-05-06 11:19 | 38.08806 | 25.56303 | 34101 ft | 399 kts | 332° |
| 2026-05-06 11:20 | 38.13774 | 25.53172 | 34104 ft | 399 kts | 332° |
| 2026-05-06 11:20 | 38.18743 | 25.50035 | 34104 ft | 399 kts | 332° |
| 2026-05-06 11:21 | 38.23712 | 25.46897 | 34102 ft | 399 kts | 332° |
| 2026-05-06 11:21 | 38.28680 | 25.43751 | 34116 ft | 399 kts | 332° |
| 2026-05-06 11:22 | 38.33645 | 25.40605 | 34114 ft | 398 kts | 332° |
| 2026-05-06 11:22 | 38.38603 | 25.37454 | 34113 ft | 398 kts | 332° |
| 2026-05-06 11:23 | 38.43554 | 25.34308 | 34107 ft | 398 kts | 332° |
| 2026-05-06 11:23 | 38.48505 | 25.31154 | 34089 ft | 398 kts | 332° |
| 2026-05-06 11:24 | 38.53461 | 25.27988 | 34097 ft | 399 kts | 332° |
| 2026-05-06 11:24 | 38.58421 | 25.24812 | 34099 ft | 399 kts | 332° |
| 2026-05-06 11:25 | 38.63353 | 25.21657 | 34100 ft | 399 kts | 332° |
| 2026-05-06 11:25 | 38.68322 | 25.18483 | 34102 ft | 399 kts | 332° |
| 2026-05-06 11:26 | 38.73294 | 25.15297 | 34099 ft | 400 kts | 332° |
| 2026-05-06 11:26 | 38.78260 | 25.12101 | 34115 ft | 399 kts | 332° |
| 2026-05-06 11:27 | 38.83219 | 25.08903 | 34114 ft | 399 kts | 332° |
| 2026-05-06 11:27 | 38.88171 | 25.05712 | 34112 ft | 398 kts | 332° |
| 2026-05-06 11:28 | 38.93080 | 25.02542 | 34111 ft | 398 kts | 332° |
| 2026-05-06 11:28 | 38.98022 | 24.99339 | 34080 ft | 398 kts | 332° |
| 2026-05-06 11:29 | 39.02975 | 24.96129 | 34098 ft | 399 kts | 332° |
| 2026-05-06 11:29 | 39.07922 | 24.92914 | 34097 ft | 399 kts | 332° |
| 2026-05-06 11:30 | 39.12887 | 24.89723 | 34099 ft | 399 kts | 333° |
| 2026-05-06 11:30 | 39.17892 | 24.86647 | 34099 ft | 399 kts | 333° |
| 2026-05-06 11:31 | 39.22906 | 24.83589 | 34095 ft | 398 kts | 333° |
| 2026-05-06 11:31 | 39.27902 | 24.80493 | 34101 ft | 398 kts | 333° |
| 2026-05-06 11:32 | 39.32890 | 24.77387 | 34096 ft | 398 kts | 333° |
| 2026-05-06 11:32 | 39.37869 | 24.74273 | 34095 ft | 397 kts | 333° |
| 2026-05-06 11:33 | 39.42845 | 24.71161 | 34095 ft | 397 kts | 333° |
| 2026-05-06 11:33 | 39.47792 | 24.68069 | 34093 ft | 397 kts | 333° |
| 2026-05-06 11:34 | 39.52768 | 24.64951 | 34107 ft | 397 kts | 333° |
| 2026-05-06 11:34 | 39.57738 | 24.61828 | 34100 ft | 397 kts | 333° |
| 2026-05-06 11:35 | 39.62703 | 24.58711 | 34092 ft | 396 kts | 333° |
| 2026-05-06 11:35 | 39.67668 | 24.55595 | 34087 ft | 396 kts | 333° |
| 2026-05-06 11:36 | 39.72632 | 24.52474 | 34103 ft | 396 kts | 333° |
| 2026-05-06 11:36 | 39.77584 | 24.49335 | 34106 ft | 396 kts | 333° |
| 2026-05-06 11:37 | 39.82533 | 24.46202 | 34098 ft | 396 kts | 333° |
| 2026-05-06 11:37 | 39.87486 | 24.43074 | 34096 ft | 396 kts | 333° |
| 2026-05-06 11:38 | 39.92434 | 24.39940 | 34094 ft | 395 kts | 333° |
| 2026-05-06 11:38 | 39.97381 | 24.36799 | 34082 ft | 396 kts | 332° |
| 2026-05-06 11:39 | 40.02332 | 24.33641 | 34076 ft | 396 kts | 332° |
| 2026-05-06 11:39 | 40.07255 | 24.30497 | 34072 ft | 397 kts | 332° |
| 2026-05-06 11:40 | 40.12217 | 24.27340 | 34082 ft | 397 kts | 333° |
| 2026-05-06 11:40 | 40.17185 | 24.24174 | 34077 ft | 397 kts | 332° |
| 2026-05-06 11:41 | 40.22150 | 24.20991 | 34081 ft | 397 kts | 332° |
| 2026-05-06 11:41 | 40.27108 | 24.17799 | 34078 ft | 397 kts | 332° |
| 2026-05-06 11:42 | 40.32071 | 24.14607 | 34083 ft | 397 kts | 332° |
| 2026-05-06 11:42 | 40.37037 | 24.11412 | 34081 ft | 397 kts | 332° |
| 2026-05-06 11:43 | 40.41997 | 24.08222 | 34078 ft | 397 kts | 332° |
| 2026-05-06 11:43 | 40.46961 | 24.05018 | 34060 ft | 398 kts | 332° |
| 2026-05-06 11:44 | 40.54427 | 24.00185 | 34063 ft | 399 kts | 332° |
| 2026-05-06 11:44 | 40.59465 | 23.97093 | 34065 ft | 401 kts | 339° |
| 2026-05-06 11:45 | 40.64943 | 23.95535 | 34067 ft | 404 kts | 347° |
| 2026-05-06 11:45 | 40.70479 | 23.94228 | 34076 ft | 404 kts | 347° |
| 2026-05-06 11:46 | 40.75977 | 23.92911 | 34073 ft | 405 kts | 347° |
| 2026-05-06 11:46 | 40.81517 | 23.91584 | 34067 ft | 405 kts | 347° |
| 2026-05-06 11:47 | 40.87061 | 23.90253 | 34067 ft | 405 kts | 347° |
| 2026-05-06 11:47 | 40.92604 | 23.88931 | 34074 ft | 405 kts | 347° |
| 2026-05-06 11:48 | 40.98143 | 23.87610 | 34065 ft | 404 kts | 347° |
| 2026-05-06 11:48 | 41.03672 | 23.86282 | 34062 ft | 404 kts | 347° |
| 2026-05-06 11:49 | 41.09202 | 23.84956 | 34063 ft | 404 kts | 347° |
| 2026-05-06 11:49 | 41.14731 | 23.83622 | 34055 ft | 404 kts | 347° |
| 2026-05-06 11:50 | 41.20256 | 23.82288 | 34049 ft | 404 kts | 347° |
| 2026-05-06 11:50 | 41.24848 | 23.81177 | 34047 ft | 404 kts | 347° |
| 2026-05-06 11:51 | 41.30376 | 23.79842 | 34056 ft | 404 kts | 347° |
| 2026-05-06 11:51 | 41.35910 | 23.78509 | 34051 ft | 404 kts | 347° |
| 2026-05-06 11:52 | 41.41448 | 23.77160 | 34050 ft | 405 kts | 347° |
| 2026-05-06 11:52 | 41.46979 | 23.75774 | 34052 ft | 405 kts | 346° |
| 2026-05-06 11:53 | 41.52507 | 23.74359 | 34050 ft | 404 kts | 346° |
| 2026-05-06 11:53 | 41.58041 | 23.72944 | 34045 ft | 405 kts | 346° |
| 2026-05-06 11:54 | 41.63584 | 23.71544 | 34046 ft | 406 kts | 346° |
| 2026-05-06 11:54 | 41.69129 | 23.70134 | 34048 ft | 406 kts | 346° |
| 2026-05-06 11:55 | 41.74632 | 23.68721 | 34053 ft | 406 kts | 346° |
| 2026-05-06 11:55 | 41.80184 | 23.67299 | 34051 ft | 406 kts | 346° |
| 2026-05-06 11:56 | 41.85736 | 23.65875 | 34053 ft | 407 kts | 346° |
| 2026-05-06 11:56 | 41.91301 | 23.64449 | 34055 ft | 407 kts | 346° |
| 2026-05-06 11:57 | 41.96866 | 23.63024 | 34064 ft | 408 kts | 346° |
| 2026-05-06 11:57 | 42.02440 | 23.61591 | 34067 ft | 408 kts | 346° |
| 2026-05-06 11:58 | 42.08017 | 23.60150 | 34061 ft | 408 kts | 346° |
| 2026-05-06 11:58 | 42.13591 | 23.58708 | 34067 ft | 408 kts | 346° |
| 2026-05-06 11:59 | 42.19170 | 23.57260 | 34065 ft | 408 kts | 346° |
| 2026-05-06 11:59 | 42.24752 | 23.55817 | 34060 ft | 408 kts | 346° |
| 2026-05-06 12:00 | 42.30334 | 23.54371 | 34055 ft | 408 kts | 346° |
| 2026-05-06 12:00 | 42.35912 | 23.52917 | 34055 ft | 408 kts | 346° |
| 2026-05-06 12:01 | 42.41492 | 23.51462 | 34049 ft | 408 kts | 346° |
| 2026-05-06 12:01 | 42.47070 | 23.50005 | 34049 ft | 408 kts | 346° |
| 2026-05-06 12:02 | 42.52610 | 23.48563 | 34046 ft | 408 kts | 346° |
| 2026-05-06 12:02 | 42.58187 | 23.47097 | 34039 ft | 408 kts | 346° |
| 2026-05-06 12:03 | 42.63764 | 23.45630 | 34018 ft | 408 kts | 346° |
| 2026-05-06 12:03 | 42.69345 | 23.44153 | 34013 ft | 409 kts | 346° |
| 2026-05-06 12:04 | 42.74942 | 23.42670 | 34052 ft | 410 kts | 346° |
| 2026-05-06 12:04 | 42.80547 | 23.41195 | 34047 ft | 410 kts | 346° |
| 2026-05-06 12:05 | 42.86156 | 23.39721 | 34044 ft | 411 kts | 346° |
| 2026-05-06 12:05 | 42.91767 | 23.38232 | 34028 ft | 411 kts | 346° |
| 2026-05-06 12:06 | 42.97379 | 23.36731 | 34021 ft | 411 kts | 346° |
| 2026-05-06 12:06 | 43.02999 | 23.35236 | 34014 ft | 412 kts | 346° |
| 2026-05-06 12:07 | 43.08621 | 23.33744 | 34009 ft | 412 kts | 346° |
| 2026-05-06 12:07 | 43.14247 | 23.32241 | 34019 ft | 412 kts | 346° |
| 2026-05-06 12:08 | 43.19879 | 23.30735 | 34024 ft | 412 kts | 346° |
| 2026-05-06 12:08 | 43.25505 | 23.29234 | 34023 ft | 412 kts | 346° |
| 2026-05-06 12:09 | 43.31094 | 23.27733 | 33995 ft | 412 kts | 346° |
| 2026-05-06 12:09 | 43.36727 | 23.26212 | 34000 ft | 413 kts | 346° |
| 2026-05-06 12:10 | 43.42369 | 23.24688 | 33999 ft | 413 kts | 346° |
| 2026-05-06 12:10 | 43.48017 | 23.23163 | 34001 ft | 414 kts | 346° |
| 2026-05-06 12:11 | 43.53667 | 23.21637 | 33997 ft | 414 kts | 346° |
| 2026-05-06 12:11 | 43.59319 | 23.20101 | 34014 ft | 414 kts | 346° |
| 2026-05-06 12:12 | 43.64960 | 23.18564 | 33993 ft | 413 kts | 346° |
| 2026-05-06 12:12 | 43.70609 | 23.17029 | 33981 ft | 414 kts | 346° |
| 2026-05-06 12:13 | 43.76269 | 23.15489 | 33982 ft | 415 kts | 346° |
| 2026-05-06 12:13 | 43.81937 | 23.13948 | 34002 ft | 415 kts | 346° |
| 2026-05-06 12:14 | 43.87592 | 23.12398 | 34002 ft | 414 kts | 346° |
| 2026-05-06 12:14 | 43.93244 | 23.10848 | 34001 ft | 414 kts | 346° |
| 2026-05-06 12:15 | 43.98896 | 23.09290 | 33995 ft | 414 kts | 346° |
| 2026-05-06 12:15 | 44.04553 | 23.07726 | 33985 ft | 415 kts | 345° |
| 2026-05-06 12:16 | 44.10222 | 23.06156 | 33981 ft | 416 kts | 346° |
| 2026-05-06 12:16 | 44.15897 | 23.04599 | 33984 ft | 416 kts | 346° |
| 2026-05-06 12:17 | 44.21534 | 23.03038 | 34001 ft | 416 kts | 346° |
| 2026-05-06 12:17 | 44.27205 | 23.01473 | 34002 ft | 415 kts | 346° |
| 2026-05-06 12:18 | 44.32871 | 22.99895 | 34007 ft | 415 kts | 346° |
| 2026-05-06 12:18 | 44.38533 | 22.98310 | 33983 ft | 416 kts | 345° |
| 2026-05-06 12:19 | 44.44214 | 22.96725 | 33976 ft | 416 kts | 345° |
| 2026-05-06 12:19 | 44.49901 | 22.95131 | 33977 ft | 417 kts | 345° |
| 2026-05-06 12:20 | 44.55593 | 22.93540 | 33979 ft | 417 kts | 345° |
| 2026-05-06 12:20 | 44.61290 | 22.91946 | 33982 ft | 417 kts | 345° |
| 2026-05-06 12:21 | 44.66987 | 22.90337 | 33993 ft | 417 kts | 345° |
| 2026-05-06 12:21 | 44.72676 | 22.88732 | 33994 ft | 417 kts | 345° |
| 2026-05-06 12:22 | 44.78366 | 22.87125 | 33989 ft | 417 kts | 345° |
| 2026-05-06 12:22 | 44.84047 | 22.85496 | 34003 ft | 416 kts | 342° |
| 2026-05-06 12:23 | 44.89301 | 22.82337 | 33997 ft | 409 kts | 325° |
| 2026-05-06 12:23 | 44.94000 | 22.77911 | 33993 ft | 409 kts | 324° |
| 2026-05-06 12:24 | 44.98740 | 22.73460 | 33983 ft | 409 kts | 324° |
| 2026-05-06 12:24 | 45.03481 | 22.69001 | 33989 ft | 410 kts | 324° |
| 2026-05-06 12:25 | 45.08226 | 22.64515 | 33974 ft | 411 kts | 324° |
| 2026-05-06 12:25 | 45.12974 | 22.60014 | 33992 ft | 411 kts | 324° |
| 2026-05-06 12:26 | 45.17722 | 22.55502 | 33980 ft | 411 kts | 324° |
| 2026-05-06 12:26 | 45.22471 | 22.50981 | 33997 ft | 411 kts | 323° |
| 2026-05-06 12:27 | 45.27224 | 22.46452 | 33984 ft | 412 kts | 323° |
| 2026-05-06 12:27 | 45.31980 | 22.41904 | 33980 ft | 412 kts | 323° |
| 2026-05-06 12:28 | 45.36744 | 22.37344 | 33987 ft | 413 kts | 323° |
| 2026-05-06 12:28 | 45.41509 | 22.32780 | 33982 ft | 413 kts | 323° |
| 2026-05-06 12:29 | 45.46276 | 22.28204 | 33978 ft | 413 kts | 323° |
| 2026-05-06 12:29 | 45.51036 | 22.23605 | 33970 ft | 414 kts | 323° |
| 2026-05-06 12:30 | 45.55809 | 22.19000 | 33968 ft | 414 kts | 323° |
| 2026-05-06 12:30 | 45.60559 | 22.14422 | 33966 ft | 415 kts | 323° |
| 2026-05-06 12:31 | 45.65335 | 22.09798 | 33972 ft | 415 kts | 323° |
| 2026-05-06 12:31 | 45.70113 | 22.05153 | 33973 ft | 415 kts | 322° |
| 2026-05-06 12:32 | 45.74891 | 22.00492 | 33958 ft | 416 kts | 322° |
| 2026-05-06 12:32 | 45.79678 | 21.95821 | 33957 ft | 417 kts | 322° |
| 2026-05-06 12:33 | 45.84469 | 21.91142 | 33961 ft | 417 kts | 322° |
| 2026-05-06 12:33 | 45.89264 | 21.86447 | 33967 ft | 417 kts | 322° |
| 2026-05-06 12:34 | 45.94062 | 21.81747 | 33964 ft | 418 kts | 322° |
| 2026-05-06 12:34 | 45.98866 | 21.77030 | 33962 ft | 418 kts | 322° |
| 2026-05-06 12:35 | 46.03669 | 21.72291 | 33964 ft | 419 kts | 322° |
| 2026-05-06 12:35 | 46.08468 | 21.67538 | 33964 ft | 419 kts | 322° |
| 2026-05-06 12:36 | 46.13276 | 21.62782 | 33964 ft | 419 kts | 322° |
| 2026-05-06 12:36 | 46.18083 | 21.58019 | 33970 ft | 420 kts | 322° |
| 2026-05-06 12:37 | 46.22899 | 21.53231 | 33958 ft | 421 kts | 322° |
| 2026-05-06 12:37 | 46.27685 | 21.48455 | 33956 ft | 421 kts | 322° |
| 2026-05-06 12:38 | 46.32509 | 21.43636 | 33956 ft | 422 kts | 322° |
| 2026-05-06 12:38 | 46.37336 | 21.38800 | 33958 ft | 422 kts | 322° |
| 2026-05-06 12:39 | 46.42165 | 21.33961 | 33960 ft | 422 kts | 322° |
| 2026-05-06 12:39 | 46.47110 | 21.29349 | 33952 ft | 426 kts | 331° |
| 2026-05-06 12:40 | 46.52846 | 21.26947 | 33944 ft | 436 kts | 351° |
| 2026-05-06 12:40 | 46.58953 | 21.26842 | 33948 ft | 440 kts | 356° |
| 2026-05-06 12:41 | 46.65081 | 21.26903 | 33959 ft | 441 kts | 356° |
| 2026-05-06 12:41 | 46.71222 | 21.26978 | 33950 ft | 442 kts | 356° |
| 2026-05-06 12:42 | 46.76330 | 21.27038 | 33937 ft | 442 kts | 356° |
| 2026-05-06 12:42 | 46.82485 | 21.27108 | 33939 ft | 442 kts | 356° |
| 2026-05-06 12:43 | 46.88645 | 21.27182 | 33949 ft | 443 kts | 356° |
| 2026-05-06 12:43 | 46.94809 | 21.27259 | 33943 ft | 443 kts | 356° |
| 2026-05-06 12:44 | 47.00977 | 21.27328 | 33933 ft | 444 kts | 356° |
| 2026-05-06 12:44 | 47.07152 | 21.27398 | 33949 ft | 444 kts | 356° |
| 2026-05-06 12:45 | 47.13334 | 21.27464 | 33936 ft | 445 kts | 356° |
| 2026-05-06 12:46 | 47.22627 | 21.27572 | 33929 ft | 446 kts | 356° |
| 2026-05-06 12:46 | 47.28837 | 21.27644 | 33933 ft | 446 kts | 356° |
| 2026-05-06 12:47 | 47.35049 | 21.27721 | 33931 ft | 447 kts | 357° |
| 2026-05-06 12:47 | 47.41226 | 21.27796 | 33929 ft | 447 kts | 357° |
| 2026-05-06 12:48 | 47.47450 | 21.27867 | 33935 ft | 447 kts | 356° |
| 2026-05-06 12:48 | 47.53681 | 21.27945 | 33929 ft | 448 kts | 357° |
| 2026-05-06 12:49 | 47.59920 | 21.28022 | 33928 ft | 449 kts | 357° |
| 2026-05-06 12:49 | 47.66169 | 21.28093 | 33926 ft | 449 kts | 357° |
| 2026-05-06 12:50 | 47.72422 | 21.28172 | 33927 ft | 449 kts | 357° |
| 2026-05-06 12:50 | 47.78675 | 21.28250 | 33938 ft | 449 kts | 357° |
| 2026-05-06 12:51 | 47.84921 | 21.28323 | 33940 ft | 449 kts | 357° |
| 2026-05-06 12:51 | 47.91163 | 21.28400 | 33930 ft | 449 kts | 357° |
| 2026-05-06 12:52 | 47.97407 | 21.28479 | 33938 ft | 448 kts | 357° |
| 2026-05-06 12:52 | 48.03647 | 21.28550 | 33931 ft | 448 kts | 356° |
| 2026-05-06 12:53 | 48.09888 | 21.28616 | 33931 ft | 448 kts | 356° |
| 2026-05-06 12:53 | 48.16127 | 21.28703 | 33921 ft | 448 kts | 357° |
| 2026-05-06 12:54 | 48.22325 | 21.28791 | 33921 ft | 448 kts | 357° |
| 2026-05-06 12:54 | 48.28566 | 21.28861 | 33918 ft | 448 kts | 357° |
| 2026-05-06 12:55 | 48.34807 | 21.28930 | 33910 ft | 449 kts | 357° |
| 2026-05-06 12:55 | 48.41055 | 21.29005 | 33907 ft | 449 kts | 357° |
| 2026-05-06 12:56 | 48.47302 | 21.29080 | 33910 ft | 449 kts | 357° |
| 2026-05-06 12:56 | 48.53510 | 21.28695 | 33913 ft | 444 kts | 346° |
| 2026-05-06 12:57 | 48.59518 | 21.26690 | 33923 ft | 442 kts | 343° |
| 2026-05-06 12:57 | 48.65519 | 21.24640 | 33914 ft | 442 kts | 343° |
| 2026-05-06 12:58 | 48.71526 | 21.22584 | 33911 ft | 443 kts | 344° |
| 2026-05-06 12:58 | 48.77545 | 21.20518 | 33906 ft | 444 kts | 343° |
| 2026-05-06 12:59 | 48.83566 | 21.18445 | 33900 ft | 444 kts | 343° |
| 2026-05-06 12:59 | 48.89588 | 21.16378 | 33895 ft | 444 kts | 344° |
| 2026-05-06 13:00 | 48.95622 | 21.14294 | 33900 ft | 445 kts | 343° |
| 2026-05-06 13:00 | 49.01657 | 21.12204 | 33899 ft | 445 kts | 343° |
| 2026-05-06 13:01 | 49.07655 | 21.10120 | 33893 ft | 445 kts | 344° |
| 2026-05-06 13:01 | 49.13694 | 21.08005 | 33887 ft | 445 kts | 343° |
| 2026-05-06 13:02 | 49.19740 | 21.05896 | 33890 ft | 446 kts | 344° |
| 2026-05-06 13:02 | 49.25788 | 21.03785 | 33883 ft | 445 kts | 343° |
| 2026-05-06 13:03 | 49.31830 | 21.01676 | 33880 ft | 445 kts | 343° |
| 2026-05-06 13:03 | 49.37987 | 21.00358 | 33877 ft | 448 kts | 351° |
| 2026-05-06 13:04 | 49.44199 | 20.99393 | 33883 ft | 448 kts | 351° |
| 2026-05-06 13:04 | 49.50402 | 20.98426 | 33867 ft | 448 kts | 351° |
| 2026-05-06 13:05 | 49.56605 | 20.97443 | 33862 ft | 448 kts | 351° |
| 2026-05-06 13:05 | 49.62813 | 20.96460 | 33855 ft | 448 kts | 351° |
| 2026-05-06 13:06 | 49.69024 | 20.95474 | 33855 ft | 449 kts | 351° |
| 2026-05-06 13:06 | 49.75236 | 20.94500 | 33849 ft | 449 kts | 351° |
| 2026-05-06 13:07 | 49.81451 | 20.93520 | 33838 ft | 449 kts | 351° |
| 2026-05-06 13:07 | 49.87620 | 20.92526 | 33838 ft | 449 kts | 351° |
| 2026-05-06 13:08 | 49.93832 | 20.91526 | 33839 ft | 449 kts | 351° |
| 2026-05-06 13:08 | 50.00045 | 20.90534 | 33848 ft | 449 kts | 351° |
| 2026-05-06 13:09 | 50.06260 | 20.89546 | 33838 ft | 449 kts | 351° |
| 2026-05-06 13:09 | 50.12483 | 20.88551 | 33831 ft | 450 kts | 351° |
| 2026-05-06 13:10 | 50.18711 | 20.87544 | 33825 ft | 450 kts | 351° |
| 2026-05-06 13:10 | 50.24936 | 20.86542 | 33820 ft | 450 kts | 351° |
| 2026-05-06 13:11 | 50.31166 | 20.85533 | 33819 ft | 450 kts | 351° |
| 2026-05-06 13:11 | 50.37383 | 20.84505 | 33819 ft | 450 kts | 351° |
| 2026-05-06 13:12 | 50.43614 | 20.83495 | 33820 ft | 451 kts | 351° |
| 2026-05-06 13:12 | 50.49854 | 20.82484 | 33830 ft | 451 kts | 350° |
| 2026-05-06 13:13 | 50.56095 | 20.81458 | 33819 ft | 451 kts | 350° |
| 2026-05-06 13:13 | 50.62345 | 20.80431 | 33811 ft | 451 kts | 350° |
| 2026-05-06 13:14 | 50.68593 | 20.79405 | 33811 ft | 452 kts | 350° |
| 2026-05-06 13:14 | 50.74854 | 20.78367 | 33806 ft | 453 kts | 350° |
| 2026-05-06 13:15 | 50.81123 | 20.77324 | 33802 ft | 453 kts | 350° |
| 2026-05-06 13:15 | 50.87352 | 20.76291 | 33803 ft | 453 kts | 350° |
| 2026-05-06 13:16 | 50.93631 | 20.75245 | 33801 ft | 454 kts | 350° |
| 2026-05-06 13:16 | 50.99914 | 20.74199 | 33797 ft | 454 kts | 350° |
| 2026-05-06 13:17 | 51.06205 | 20.73145 | 33803 ft | 455 kts | 349° |
| 2026-05-06 13:17 | 51.12499 | 20.72085 | 33791 ft | 455 kts | 349° |
| 2026-05-06 13:18 | 51.18801 | 20.71024 | 33796 ft | 456 kts | 349° |
| 2026-05-06 13:18 | 51.25110 | 20.69964 | 33787 ft | 456 kts | 348° |
| 2026-05-06 13:19 | 51.31155 | 20.67436 | 33782 ft | 445 kts | 331° |
| 2026-05-06 13:19 | 51.36778 | 20.63333 | 33777 ft | 445 kts | 330° |
| 2026-05-06 13:20 | 51.42413 | 20.59235 | 33789 ft | 445 kts | 330° |
| 2026-05-06 13:20 | 51.48062 | 20.55132 | 33800 ft | 446 kts | 330° |
| 2026-05-06 13:21 | 51.53706 | 20.51012 | 33792 ft | 446 kts | 329° |
| 2026-05-06 13:21 | 51.59351 | 20.46861 | 33773 ft | 446 kts | 329° |
| 2026-05-06 13:22 | 51.64949 | 20.42725 | 33777 ft | 446 kts | 329° |
| 2026-05-06 13:22 | 51.70593 | 20.38556 | 33761 ft | 446 kts | 329° |
| 2026-05-06 13:23 | 51.76237 | 20.34380 | 33773 ft | 446 kts | 329° |
| 2026-05-06 13:23 | 51.81878 | 20.30196 | 33790 ft | 446 kts | 329° |
| 2026-05-06 13:24 | 51.87512 | 20.26004 | 33783 ft | 446 kts | 328° |
| 2026-05-06 13:24 | 51.93138 | 20.21796 | 33780 ft | 445 kts | 328° |
| 2026-05-06 13:25 | 51.98761 | 20.17583 | 33775 ft | 445 kts | 328° |
| 2026-05-06 13:25 | 52.04379 | 20.13366 | 33775 ft | 445 kts | 328° |
| 2026-05-06 13:26 | 52.10001 | 20.09143 | 33770 ft | 445 kts | 328° |
| 2026-05-06 13:26 | 52.15625 | 20.04904 | 33796 ft | 445 kts | 328° |
| 2026-05-06 13:27 | 52.21246 | 20.00648 | 33782 ft | 445 kts | 328° |
| 2026-05-06 13:27 | 52.26859 | 19.96387 | 33771 ft | 445 kts | 327° |
| 2026-05-06 13:28 | 52.32463 | 19.92109 | 33777 ft | 445 kts | 327° |
| 2026-05-06 13:28 | 52.38036 | 19.87850 | 33766 ft | 445 kts | 327° |
| 2026-05-06 13:29 | 52.43651 | 19.83561 | 33758 ft | 445 kts | 327° |
| 2026-05-06 13:29 | 52.49267 | 19.79257 | 33757 ft | 446 kts | 327° |
| 2026-05-06 13:30 | 52.54884 | 19.74931 | 33761 ft | 446 kts | 327° |
| 2026-05-06 13:30 | 52.60495 | 19.70600 | 33766 ft | 446 kts | 327° |
| 2026-05-06 13:31 | 52.66105 | 19.66254 | 33754 ft | 446 kts | 327° |
| 2026-05-06 13:31 | 52.71714 | 19.61888 | 33746 ft | 446 kts | 327° |
| 2026-05-06 13:32 | 52.77323 | 19.57514 | 33745 ft | 446 kts | 327° |
| 2026-05-06 13:32 | 52.82935 | 19.53137 | 33746 ft | 446 kts | 327° |
| 2026-05-06 13:33 | 52.88553 | 19.48739 | 33772 ft | 447 kts | 327° |
| 2026-05-06 13:33 | 52.94175 | 19.44327 | 33764 ft | 447 kts | 327° |
| 2026-05-06 13:34 | 52.98850 | 19.40649 | 33760 ft | 448 kts | 327° |
| 2026-05-06 13:34 | 53.04475 | 19.36211 | 33743 ft | 448 kts | 327° |
| 2026-05-06 13:35 | 53.10099 | 19.31756 | 33746 ft | 448 kts | 327° |
| 2026-05-06 13:35 | 53.15718 | 19.27284 | 33751 ft | 447 kts | 327° |
| 2026-05-06 13:36 | 53.21337 | 19.22804 | 33781 ft | 448 kts | 327° |
| 2026-05-06 13:36 | 53.26978 | 19.18310 | 33749 ft | 450 kts | 327° |
| 2026-05-06 13:37 | 53.32631 | 19.13788 | 33748 ft | 451 kts | 327° |
| 2026-05-06 13:37 | 53.38293 | 19.09230 | 33743 ft | 452 kts | 327° |
| 2026-05-06 13:38 | 53.43923 | 19.04700 | 33745 ft | 452 kts | 327° |
| 2026-05-06 13:38 | 53.49592 | 19.00121 | 33761 ft | 452 kts | 327° |
| 2026-05-06 13:39 | 53.55259 | 18.95522 | 33797 ft | 452 kts | 327° |
| 2026-05-06 13:39 | 53.60930 | 18.90905 | 33787 ft | 453 kts | 327° |
| 2026-05-06 13:40 | 53.66602 | 18.86280 | 33787 ft | 453 kts | 327° |
| 2026-05-06 13:40 | 53.72273 | 18.81648 | 33767 ft | 453 kts | 327° |
| 2026-05-06 13:41 | 53.77943 | 18.76993 | 33771 ft | 453 kts | 327° |
| 2026-05-06 13:41 | 53.83614 | 18.72321 | 33778 ft | 453 kts | 327° |
| 2026-05-06 13:42 | 53.89289 | 18.67633 | 33778 ft | 454 kts | 327° |
| 2026-05-06 13:42 | 53.94972 | 18.62938 | 33821 ft | 454 kts | 328° |
| 2026-05-06 13:43 | 54.00632 | 18.58237 | 33819 ft | 453 kts | 328° |
| 2026-05-06 13:43 | 54.06283 | 18.53523 | 33818 ft | 452 kts | 328° |
| 2026-05-06 13:44 | 54.11923 | 18.48804 | 33811 ft | 452 kts | 328° |
| 2026-05-06 13:44 | 54.17530 | 18.44112 | 33826 ft | 452 kts | 328° |
| 2026-05-06 13:45 | 54.23169 | 18.39372 | 33824 ft | 452 kts | 328° |
| 2026-05-06 13:45 | 54.31624 | 18.32230 | 33868 ft | 452 kts | 328° |
| 2026-05-06 13:46 | 54.37256 | 18.27454 | 33858 ft | 451 kts | 329° |
| 2026-05-06 13:46 | 54.42889 | 18.22675 | 33850 ft | 452 kts | 329° |
| 2026-05-06 13:47 | 54.48522 | 18.17883 | 33838 ft | 452 kts | 329° |
| 2026-05-06 13:47 | 54.54157 | 18.13053 | 33840 ft | 452 kts | 329° |
| 2026-05-06 13:48 | 54.59794 | 18.08216 | 33845 ft | 453 kts | 329° |
| 2026-05-06 13:48 | 54.65431 | 18.03356 | 33879 ft | 453 kts | 329° |
| 2026-05-06 13:49 | 54.71061 | 17.98493 | 33875 ft | 453 kts | 329° |
| 2026-05-06 13:49 | 54.76699 | 17.93631 | 33877 ft | 452 kts | 329° |
| 2026-05-06 13:50 | 54.82325 | 17.88753 | 33869 ft | 452 kts | 329° |
| 2026-05-06 13:50 | 54.87949 | 17.83853 | 33874 ft | 452 kts | 328° |
| 2026-05-06 13:51 | 54.93531 | 17.78965 | 33874 ft | 452 kts | 328° |
| 2026-05-06 13:51 | 54.99149 | 17.74043 | 33872 ft | 452 kts | 328° |
| 2026-05-06 13:52 | 55.04762 | 17.69098 | 33907 ft | 452 kts | 329° |
| 2026-05-06 13:52 | 55.10381 | 17.64135 | 33897 ft | 453 kts | 330° |
| 2026-05-06 13:53 | 55.16007 | 17.59173 | 33898 ft | 453 kts | 330° |
| 2026-05-06 13:53 | 55.21628 | 17.54190 | 33896 ft | 453 kts | 329° |
| 2026-05-06 13:54 | 55.27249 | 17.49174 | 33896 ft | 453 kts | 329° |
| 2026-05-06 13:54 | 55.32867 | 17.44138 | 33905 ft | 453 kts | 330° |
| 2026-05-06 13:55 | 55.38482 | 17.39106 | 33920 ft | 453 kts | 331° |
| 2026-05-06 13:55 | 55.44101 | 17.34061 | 33912 ft | 453 kts | 331° |
| 2026-05-06 13:56 | 55.49718 | 17.28994 | 33910 ft | 453 kts | 331° |
| 2026-05-06 13:56 | 55.55329 | 17.23914 | 33915 ft | 453 kts | 331° |
| 2026-05-06 13:57 | 55.61145 | 17.19651 | 33919 ft | 455 kts | 346° |
| 2026-05-06 13:57 | 55.67439 | 17.18830 | 33906 ft | 456 kts | 6° |
| 2026-05-06 13:58 | 55.70561 | 17.19800 | 33902 ft | 455 kts | 17° |
| 2026-05-06 13:58 | 55.73588 | 17.21426 | 33909 ft | 456 kts | 18° |
| 2026-05-06 13:58 | 55.76630 | 17.23090 | 33694 ft | 458 kts | 18° |
| 2026-05-06 13:58 | 55.79636 | 17.24730 | 33423 ft | 458 kts | 18° |
| 2026-05-06 13:59 | 55.82684 | 17.26385 | 33150 ft | 459 kts | 18° |
| 2026-05-06 13:59 | 55.85732 | 17.28039 | 32837 ft | 457 kts | 18° |
| 2026-05-06 13:59 | 55.88767 | 17.29696 | 32253 ft | 455 kts | 17° |
| 2026-05-06 13:59 | 55.91781 | 17.31347 | 31691 ft | 452 kts | 17° |
| 2026-05-06 14:00 | 55.94784 | 17.32999 | 31128 ft | 450 kts | 17° |
| 2026-05-06 14:00 | 55.97770 | 17.34644 | 30567 ft | 449 kts | 17° |
| 2026-05-06 14:00 | 56.00748 | 17.36285 | 30017 ft | 447 kts | 17° |
| 2026-05-06 14:00 | 56.03706 | 17.37919 | 29418 ft | 444 kts | 17° |
| 2026-05-06 14:01 | 56.06640 | 17.39547 | 28888 ft | 440 kts | 17° |
| 2026-05-06 14:01 | 56.09550 | 17.41167 | 28339 ft | 436 kts | 17° |
| 2026-05-06 14:01 | 56.12437 | 17.42773 | 27816 ft | 433 kts | 17° |
| 2026-05-06 14:01 | 56.15303 | 17.44364 | 27295 ft | 429 kts | 16° |
| 2026-05-06 14:02 | 56.18149 | 17.45942 | 26794 ft | 426 kts | 16° |
| 2026-05-06 14:02 | 56.20972 | 17.47511 | 26288 ft | 423 kts | 16° |
| 2026-05-06 14:02 | 56.23775 | 17.49074 | 25804 ft | 420 kts | 16° |
| 2026-05-06 14:02 | 56.26553 | 17.50623 | 25327 ft | 417 kts | 16° |
| 2026-05-06 14:03 | 56.29312 | 17.52168 | 24860 ft | 414 kts | 16° |
| 2026-05-06 14:03 | 56.32057 | 17.53714 | 24391 ft | 412 kts | 16° |
| 2026-05-06 14:03 | 56.34755 | 17.55239 | 23930 ft | 411 kts | 16° |
| 2026-05-06 14:03 | 56.37478 | 17.56779 | 23454 ft | 410 kts | 16° |
| 2026-05-06 14:04 | 56.40194 | 17.58308 | 22944 ft | 408 kts | 16° |
| 2026-05-06 14:04 | 56.42895 | 17.59829 | 22465 ft | 405 kts | 15° |
| 2026-05-06 14:04 | 56.45578 | 17.61344 | 21983 ft | 403 kts | 15° |
| 2026-05-06 14:04 | 56.48248 | 17.62854 | 21511 ft | 401 kts | 15° |
| 2026-05-06 14:05 | 56.50902 | 17.64358 | 21030 ft | 399 kts | 16° |
| 2026-05-06 14:05 | 56.53554 | 17.65866 | 20543 ft | 398 kts | 16° |
| 2026-05-06 14:05 | 56.56189 | 17.67364 | 20061 ft | 397 kts | 16° |
| 2026-05-06 14:05 | 56.58823 | 17.68857 | 19573 ft | 396 kts | 16° |
| 2026-05-06 14:06 | 56.61450 | 17.70349 | 19085 ft | 395 kts | 16° |
| 2026-05-06 14:06 | 56.64067 | 17.71837 | 18604 ft | 394 kts | 16° |
| 2026-05-06 14:06 | 56.66680 | 17.73324 | 18114 ft | 393 kts | 16° |
| 2026-05-06 14:06 | 56.69284 | 17.74817 | 17603 ft | 391 kts | 16° |
| 2026-05-06 14:07 | 56.71863 | 17.76302 | 17132 ft | 388 kts | 16° |
| 2026-05-06 14:07 | 56.74425 | 17.77778 | 16667 ft | 384 kts | 16° |
| 2026-05-06 14:07 | 56.76964 | 17.79237 | 16210 ft | 381 kts | 16° |
| 2026-05-06 14:07 | 56.79484 | 17.80687 | 15759 ft | 378 kts | 15° |
| 2026-05-06 14:08 | 56.81979 | 17.82124 | 15344 ft | 374 kts | 15° |
| 2026-05-06 14:08 | 56.84444 | 17.83545 | 14888 ft | 371 kts | 15° |
| 2026-05-06 14:08 | 56.86887 | 17.84958 | 14487 ft | 366 kts | 15° |
| 2026-05-06 14:08 | 56.89305 | 17.86364 | 14111 ft | 361 kts | 15° |
| 2026-05-06 14:09 | 56.91697 | 17.87759 | 13627 ft | 359 kts | 15° |
| 2026-05-06 14:09 | 56.94072 | 17.89140 | 13093 ft | 357 kts | 16° |
| 2026-05-06 14:09 | 56.96421 | 17.90503 | 12654 ft | 353 kts | 16° |
| 2026-05-06 14:09 | 56.98753 | 17.91857 | 12230 ft | 349 kts | 16° |
| 2026-05-06 14:10 | 57.01061 | 17.93202 | 11728 ft | 347 kts | 16° |
| 2026-05-06 14:10 | 57.03321 | 17.94522 | 11296 ft | 344 kts | 16° |
| 2026-05-06 14:10 | 57.05589 | 17.95850 | 10867 ft | 341 kts | 17° |
| 2026-05-06 14:10 | 57.07836 | 17.97171 | 10435 ft | 338 kts | 17° |
| 2026-05-06 14:11 | 57.10060 | 17.98475 | 10144 ft | 330 kts | 16° |
| 2026-05-06 14:11 | 57.12204 | 17.99733 | 10015 ft | 318 kts | 17° |
| 2026-05-06 14:11 | 57.14273 | 18.00945 | 9892 ft | 306 kts | 16° |
| 2026-05-06 14:11 | 57.16262 | 18.02113 | 9732 ft | 296 kts | 17° |
| 2026-05-06 14:12 | 57.18210 | 18.03259 | 9386 ft | 292 kts | 16° |
| 2026-05-06 14:12 | 57.20137 | 18.04392 | 8950 ft | 290 kts | 17° |
| 2026-05-06 14:12 | 57.22044 | 18.05515 | 8626 ft | 286 kts | 17° |
| 2026-05-06 14:12 | 57.23926 | 18.06626 | 8312 ft | 282 kts | 16° |
| 2026-05-06 14:13 | 57.25778 | 18.07722 | 7999 ft | 278 kts | 17° |
| 2026-05-06 14:13 | 57.27609 | 18.08805 | 7690 ft | 274 kts | 17° |
| 2026-05-06 14:13 | 57.29418 | 18.09874 | 7382 ft | 271 kts | 17° |
| 2026-05-06 14:13 | 57.31202 | 18.10932 | 7083 ft | 268 kts | 17° |
| 2026-05-06 14:14 | 57.32972 | 18.11988 | 6780 ft | 267 kts | 17° |
| 2026-05-06 14:14 | 57.34729 | 18.13037 | 6479 ft | 264 kts | 17° |
| 2026-05-06 14:14 | 57.36466 | 18.14073 | 6169 ft | 261 kts | 17° |
| 2026-05-06 14:14 | 57.38180 | 18.15093 | 5852 ft | 257 kts | 17° |
| 2026-05-06 14:15 | 57.39877 | 18.16099 | 5538 ft | 255 kts | 17° |
| 2026-05-06 14:15 | 57.41554 | 18.17096 | 5241 ft | 251 kts | 18° |
| 2026-05-06 14:15 | 57.43198 | 18.18124 | 4968 ft | 248 kts | 19° |
| 2026-05-06 14:15 | 57.44805 | 18.19247 | 4670 ft | 246 kts | 21° |
| 2026-05-06 14:16 | 57.46390 | 18.20395 | 4378 ft | 244 kts | 22° |
| 2026-05-06 14:16 | 57.47966 | 18.21539 | 4058 ft | 242 kts | 22° |
| 2026-05-06 14:16 | 57.49502 | 18.22641 | 3733 ft | 229 kts | 22° |
| 2026-05-06 14:16 | 57.50928 | 18.23658 | 3442 ft | 212 kts | 22° |
| 2026-05-06 14:17 | 57.52274 | 18.24618 | 3170 ft | 203 kts | 23° |
| 2026-05-06 14:17 | 57.53541 | 18.25519 | 2856 ft | 187 kts | 24° |
| 2026-05-06 14:17 | 57.54719 | 18.26355 | 2527 ft | 175 kts | 25° |
| 2026-05-06 14:17 | 57.55847 | 18.27159 | 2163 ft | 171 kts | 25° |
| 2026-05-06 14:18 | 57.56917 | 18.27918 | 1948 ft | 159 kts | 24° |
| 2026-05-06 14:18 | 57.57900 | 18.28614 | 1722 ft | 146 kts | 26° |
| 2026-05-06 14:18 | 57.58820 | 18.29272 | 1523 ft | 142 kts | 25° |
| 2026-05-06 14:18 | 57.59742 | 18.29933 | 1334 ft | 139 kts | 25° |
| 2026-05-06 14:19 | 57.60627 | 18.30566 | 1152 ft | 137 kts | 25° |
| 2026-05-06 14:19 | 57.61528 | 18.31213 | 969 ft | 137 kts | 24° |
| 2026-05-06 14:19 | 57.62405 | 18.31841 | 780 ft | 138 kts | 25° |
| 2026-05-06 14:19 | 57.63302 | 18.32484 | 603 ft | 139 kts | 24° |
| 2026-05-06 14:20 | 57.64195 | 18.33115 | 428 ft | 136 kts | 26° |
| 2026-05-06 14:20 | 57.65072 | 18.33754 | 263 ft | 136 kts | 25° |
| 2026-05-06 14:20 | 57.65933 | 18.34379 | 158 ft | 124 kts | 20° |
| 2026-05-06 14:20 | 57.66492 | 18.34774 | 156 ft | 55 kts | 21° |
| 2026-05-06 14:21 | 57.66757 | 18.34962 | 155 ft | 27 kts | 20° |
| 2026-05-06 14:21 | 57.66899 | 18.35062 | 158 ft | 22 kts | 21° |
| 2026-05-06 14:21 | 57.67038 | 18.35166 | 159 ft | 15 kts | 21° |
| 2026-05-06 14:21 | 57.67122 | 18.35211 | 158 ft | 12 kts | 2° |
| 2026-05-06 14:22 | 57.67192 | 18.35163 | 159 ft | 11 kts | 314° |
| 2026-05-06 14:22 | 57.67200 | 18.35001 | 159 ft | 13 kts | 244° |
| 2026-05-06 14:22 | 57.67123 | 18.34905 | 159 ft | 14 kts | 202° |
| 2026-05-06 14:22 | 57.67038 | 18.34843 | 159 ft | 13 kts | 201° |
| 2026-05-06 14:23 | 57.66958 | 18.34785 | 159 ft | 12 kts | 201° |
| 2026-05-06 14:23 | 57.66883 | 18.34730 | 159 ft | 11 kts | 201° |
| 2026-05-06 14:23 | 57.66807 | 18.34678 | 159 ft | 13 kts | 200° |
| 2026-05-06 14:23 | 57.66704 | 18.34605 | 159 ft | 19 kts | 201° |
| 2026-05-06 14:24 | 57.66563 | 18.34506 | 159 ft | 24 kts | 200° |
| 2026-05-06 14:24 | 57.66402 | 18.34389 | 159 ft | 25 kts | 201° |
| 2026-05-06 14:24 | 57.66248 | 18.34277 | 159 ft | 22 kts | 200° |
| 2026-05-06 14:24 | 57.66110 | 18.34179 | 159 ft | 19 kts | 201° |
| 2026-05-06 14:25 | 57.66028 | 18.34115 | 159 ft | 7 kts | 214° |
| 2026-05-06 14:25 | 57.66012 | 18.34077 | 159 ft | 4 kts | 237° |
| 2026-05-06 14:25 | 57.66001 | 18.34048 | 159 ft | 1 kts | 231° |
| 2026-05-06 14:25 | 57.65997 | 18.34040 | 159 ft | 2 kts | 230° |
| 2026-05-06 14:26 | 57.65985 | 18.34020 | 159 ft | 0 kts | 221° |
| 2026-05-06 14:26 | 57.65984 | 18.34016 | 159 ft | 2 kts | 232° |
| 2026-05-06 14:26 | 57.66006 | 18.33935 | 159 ft | 4 kts | 335° |
| 2026-05-06 14:26 | 57.66017 | 18.33925 | 159 ft | 0 kts | 336° |